Los Angeles International Airport

KLAX | LAX

Los Angeles , California , United States

Thursday, September 19th, 2019 | 12:23

Weather

KLAX 191853Z 25009KT 10SM SCT018 BKN030 24/16 A2988 RMK AO2 SLP116 T02440156 $

Charts

103 Available

Gates

308 Available

Runways

4 Available

Events

No events for this airport


New event